Airfield :
LOGIN :

Register | Disclaimer

   EN    FR    IT 

 










Legend :    VFR   Marginal VFR   IFR   Intensive IFR   Very Intensive IFR
Visi :
Ceiling :
>= 8 km
>= 3000ft
5 to 8 km
1000 to 3000 ft
1500m to 5 km
500 to 1000 ft
800 to 1500m
200 to 500 ft
< 800m
< 200 ft
Symbols :   Thunderstorms  Fog  Heavy snow  Heavy precipitations  Wind > 20 kt
SIGMETs :     Misc.  Thunderstorms  Icing  Turbulence  Mountain Waves  Volcanic Ashes







- Airport Elevation : 538 ft
- IATA code : TNF
- Download approach charts


LFPN - Toussus Le Noble

CURRENT METAR :
  • 171430Z AUTO 31007KT 250V020 CAVOK 24/10 Q1021 NOSIG

EXPIRED METARs :
  • 171400Z AUTO 34008KT 300V030 CAVOK 23/10 Q1021 NOSIG
  • 171330Z AUTO 31008KT 250V010 CAVOK 24/10 Q1021 NOSIG
  • 171300Z AUTO 33006KT 240V030 CAVOK 24/10 Q1021 NOSIG
  • 171230Z AUTO VRB06KT CAVOK 23/08 Q1021 NOSIG
  • 171200Z AUTO 35008KT 280V040 CAVOK 23/09 Q1021 NOSIG
  • 171130Z AUTO 30007KT 230V010 9999 SCT047 23/10 Q1021 NOSIG

TAF TAF LFPN
Valid from the 17 at 12:00 until the 17 at 21:00 UTC


171100Z 1712/1721 33007KT CAVOK
ATIS : +33 1 39 56 54 70
No reported NOTAMs for that airfield.
1 SIGMET reported for the Paris FIR (LFFF) :
 
Severe turbulence
LFFF SIGMET 7 VALID 171400/171800 LFPW
LFFF PARIS FIR/UIR SEV TURB FCST WI N4630 E00245 - N4715 E00200 - N4715 E00130 - N5000 E00430 - N4930 E00600 - N4900 E00445 - N4845 E00515 - N4645 E00300 - N4630 E00245 FL230/340 MOV E 10KT NC=



MET'MAP, your aeronautical weather chart ! - Copyright ORBIFLY December 2007 - Disclaimer

ORBIFLY MET'MAP TEAM :

Programming & Development : Alexandra Zaïnal
Concept & Development : Baudouin d'Aumeries
Co-Development & Prog : Marc-Olivier Méhu
Technical & hardware support : Manuel Goepfert

Contact : metmap@orbifly.com




SOURCES & CREDITS :

   NOAA